Time;durP1;ratioP1;P1;durP2;ratioP2;P2;SDS_P1;SDS_P2;PMS_P1;PMS_P2;Temp;Humidity;BMP_temperature;BMP_pressure;BME280_temperature;BME280_humidity;BME280_pressure;Samples;Min_cycle;Max_cycle;Signal;HPM_P1;HPM_P2
2022/01/17 00:02:28;;;;;;;10.38;1.60;;;5.90;99.90;;;;;;5110420;28;20047;-88
2022/01/17 00:04:54;;;;;;;9.23;1.88;;;5.60;99.90;;;;;;5110571;27;20092;-87
2022/01/17 00:07:19;;;;;;;9.00;2.05;;;5.60;99.90;;;;;;5097581;27;20047;-87
2022/01/17 00:09:45;;;;;;;15.88;2.05;;;5.60;99.90;;;;;;5097137;27;20043;-88
2022/01/17 00:12:11;;;;;;;13.77;2.35;;;5.60;99.90;;;;;;5109728;28;20047;-88
2022/01/17 00:14:41;;;;;;;13.68;1.80;;;5.60;99.90;;;;;;5120819;27;20046;-88
2022/01/17 00:17:27;;;;;;;18.25;2.58;;;5.60;99.90;;;;;;5109721;28;20038;-88
2022/01/17 00:19:55;;;;;;;11.48;2.00;;;5.60;99.90;;;;;;5093009;27;20051;-86
2022/01/17 00:22:21;;;;;;;17.23;2.33;;;5.50;99.90;;;;;;5080684;27;20043;-88
2022/01/17 00:24:48;;;;;;;11.73;1.65;;;5.50;99.90;;;;;;5096673;27;20141;-88
2022/01/17 00:27:14;;;;;;;;;;;5.40;99.90;;;;;;5096545;27;20078;-88
2022/01/17 00:29:40;;;;;;;17.20;2.67;;;5.40;99.90;;;;;;5090444;28;19927;-87
2022/01/17 00:32:06;;;;;;;10.80;1.90;;;5.30;99.90;;;;;;5093006;28;20050;-88
2022/01/17 00:34:32;;;;;;;9.63;1.73;;;5.30;99.90;;;;;;5082881;28;20419;-87
2022/01/17 00:36:58;;;;;;;11.05;2.25;;;5.30;99.90;;;;;;5093006;28;20519;-87
2022/01/17 00:39:24;;;;;;;11.50;2.08;;;5.50;99.90;;;;;;5089320;27;20043;-88
2022/01/17 00:41:51;;;;;;;14.02;1.90;;;5.30;99.90;;;;;;5096363;28;20042;-87
2022/01/17 00:44:21;;;;;;;;;;;5.30;99.90;;;;;;5091362;28;20051;-87
2022/01/17 00:46:48;;;;;;;14.38;2.17;;;5.30;99.90;;;;;;5092295;28;20067;-89
2022/01/17 00:49:15;;;;;;;13.85;1.98;;;5.30;99.90;;;;;;5092785;28;20044;-83
2022/01/17 00:51:40;;;;;;;10.23;1.88;;;5.30;99.90;;;;;;5093133;28;20120;-85
2022/01/17 00:54:06;;;;;;;15.75;2.05;;;5.30;99.90;;;;;;5076011;28;20052;-86
2022/01/17 00:56:32;;;;;;;21.25;2.28;;;5.40;99.90;;;;;;5076855;28;20050;-86
2022/01/17 00:58:58;;;;;;;11.38;1.80;;;5.30;99.90;;;;;;5091670;28;20063;-83
2022/01/17 01:01:23;;;;;;;12.60;1.83;;;5.50;99.90;;;;;;5092721;28;20476;-86
2022/01/17 01:03:49;;;;;;;10.07;1.80;;;5.20;99.90;;;;;;5098645;28;20459;-84
2022/01/17 01:06:15;;;;;;;11.02;2.15;;;5.20;99.90;;;;;;5092630;28;20075;-85
2022/01/17 01:08:40;;;;;;;9.48;1.88;;;5.20;99.90;;;;;;5075915;28;20044;-85
2022/01/17 01:11:07;;;;;;;15.02;2.05;;;5.20;99.90;;;;;;5092707;28;20051;-85
2022/01/17 01:13:32;;;;;;;12.50;1.98;;;5.40;99.90;;;;;;5075654;28;20079;-84
2022/01/17 01:18:39;;;;;;;12.02;1.77;;;5.20;99.90;;;;;;5097502;27;20043;-87
2022/01/17 01:29:13;;;;;;;11.57;1.95;;;5.20;99.90;;;;;;5109786;27;20458;-88
2022/01/17 01:31:47;;;;;;;13.88;2.53;;;5.20;99.90;;;;;;5097043;27;20145;-87
2022/01/17 01:34:14;;;;;;;13.57;2.00;;;5.20;99.90;;;;;;5080576;27;20047;-87
2022/01/17 01:36:41;;;;;;;9.75;1.98;;;5.60;99.90;;;;;;5114606;28;20480;-87
2022/01/17 01:39:08;;;;;;;18.05;2.30;;;5.20;99.90;;;;;;5094528;27;20500;-88
2022/01/17 01:41:42;;;;;;;15.98;2.30;;;5.20;99.90;;;;;;5117187;27;20391;-88
2022/01/17 01:44:20;;;;;;;11.20;2.47;;;5.30;99.90;;;;;;5099772;27;20042;-87
2022/01/17 01:46:47;;;;;;;22.13;3.20;;;5.20;99.90;;;;;;5118765;27;20130;-86
2022/01/17 01:49:14;;;;;;;19.02;2.58;;;5.10;99.90;;;;;;5113917;27;20492;-88
2022/01/17 01:51:40;;;;;;;11.48;2.08;;;5.10;99.90;;;;;;5090291;27;20078;-89
2022/01/17 01:54:07;;;;;;;15.50;2.72;;;5.00;99.90;;;;;;5117887;27;20055;-88
2022/01/17 01:56:39;;;;;;;17.83;2.97;;;5.00;99.90;;;;;;5112164;27;20403;-85
2022/01/17 01:59:06;;;;;;;17.30;1.75;;;5.00;99.90;;;;;;5112928;27;20047;-84
2022/01/17 02:01:32;;;;;;;11.88;2.58;;;4.90;99.90;;;;;;5108793;27;20122;-85
2022/01/17 02:03:58;;;;;;;14.15;2.53;;;5.00;99.90;;;;;;5099992;27;20043;-86
2022/01/17 02:06:24;;;;;;;14.23;2.38;;;4.90;99.90;;;;;;5098896;27;20499;-88
2022/01/17 02:08:50;;;;;;;16.77;2.10;;;5.50;99.90;;;;;;5116221;27;20122;-88
2022/01/17 02:11:16;;;;;;;20.55;2.08;;;4.90;99.90;;;;;;5116213;27;20480;-86
2022/01/17 02:13:42;;;;;;;10.23;1.83;;;5.00;99.90;;;;;;5115301;27;20158;-87
2022/01/17 02:16:11;;;;;;;11.05;1.77;;;4.90;99.90;;;;;;5095574;27;20138;-86
2022/01/17 02:18:37;;;;;;;17.08;3.15;;;4.90;99.90;;;;;;5098569;27;20051;-87
2022/01/17 02:23:45;;;;;;;22.40;2.45;;;4.90;99.90;;;;;;5096011;28;20043;-86
2022/01/17 02:26:13;;;;;;;13.65;2.42;;;4.90;99.90;;;;;;5078161;28;20051;-86
2022/01/17 02:28:43;;;;;;;15.75;2.15;;;5.00;99.90;;;;;;5111276;28;20444;-85
2022/01/17 02:31:09;;;;;;;19.65;2.03;;;4.90;99.90;;;;;;5095373;28;20060;-86
2022/01/17 02:33:35;;;;;;;12.85;1.88;;;4.90;99.90;;;;;;5116519;27;20051;-88
2022/01/17 02:36:02;;;;;;;16.75;2.38;;;4.90;99.90;;;;;;5116341;27;20051;-86
2022/01/17 02:38:28;;;;;;;16.45;2.15;;;4.90;99.90;;;;;;5115404;27;20074;-88
2022/01/17 02:40:54;;;;;;;;;;;4.90;99.90;;;;;;5111511;28;20555;-87
2022/01/17 02:43:21;;;;;;;16.83;3.00;;;4.80;99.90;;;;;;5121723;27;20011;-85
2022/01/17 02:48:17;;;;;;;9.55;1.95;;;4.70;99.90;;;;;;5095678;27;20090;-87
2022/01/17 02:50:43;;;;;;;10.60;1.92;;;4.80;99.90;;;;;;5115403;27;20050;-87
2022/01/17 02:53:09;;;;;;;10.77;2.40;;;4.70;99.90;;;;;;5133508;27;20515;-85
2022/01/17 02:55:37;;;;;;;14.48;1.63;;;4.60;99.90;;;;;;5115901;27;20093;-88
2022/01/17 02:58:03;;;;;;;16.05;2.60;;;4.60;99.90;;;;;;5115622;27;20043;-87
2022/01/17 03:00:28;;;;;;;;;;;4.60;99.90;;;;;;5097085;27;20162;-88
2022/01/17 03:02:54;;;;;;;17.23;1.98;;;4.50;99.90;;;;;;5098716;27;20014;-88
2022/01/17 03:05:21;;;;;;;13.95;1.90;;;4.50;99.90;;;;;;5094429;28;20043;-85
2022/01/17 03:07:47;;;;;;;12.68;2.58;;;4.50;99.90;;;;;;5115605;27;20092;-87
2022/01/17 03:10:29;;;;;;;15.90;2.30;;;4.50;99.90;;;;;;5114885;27;20082;-85
2022/01/17 03:13:07;;;;;;;12.95;1.95;;;4.50;99.90;;;;;;5098885;27;20058;-87
2022/01/17 03:15:33;;;;;;;17.17;2.72;;;4.40;99.90;;;;;;5112106;27;20043;-87
2022/01/17 03:18:00;;;;;;;18.13;3.03;;;4.40;99.90;;;;;;5115863;27;20062;-87
2022/01/17 03:20:26;;;;;;;18.27;2.97;;;4.40;99.90;;;;;;5115170;27;20047;-86
2022/01/17 03:22:51;;;;;;;17.60;2.78;;;4.40;99.90;;;;;;5083010;28;20084;-88
2022/01/17 03:25:17;;;;;;;12.70;2.78;;;4.30;99.90;;;;;;5094034;28;20063;-87
2022/01/17 03:27:43;;;;;;;9.02;2.10;;;4.30;99.90;;;;;;5095074;28;20040;-87
2022/01/17 03:30:09;;;;;;;12.52;1.92;;;4.60;99.90;;;;;;5093181;28;20055;-88
2022/01/17 03:32:35;;;;;;;18.63;2.28;;;4.20;99.90;;;;;;5094685;28;20086;-87
2022/01/17 03:35:01;;;;;;;14.95;2.28;;;4.20;99.90;;;;;;5094776;28;20075;-87
2022/01/17 03:37:27;;;;;;;14.45;3.40;;;4.30;99.90;;;;;;5094723;28;20134;-88
2022/01/17 03:39:53;;;;;;;;;;;4.30;99.90;;;;;;5095301;28;20052;-87
2022/01/17 03:42:18;;;;;;;17.52;1.90;;;4.20;99.90;;;;;;5111333;27;20351;-88
2022/01/17 03:44:45;;;;;;;20.85;2.85;;;4.20;99.90;;;;;;5113881;27;20047;-87
2022/01/17 03:47:11;;;;;;;11.63;1.98;;;4.10;99.90;;;;;;5114648;27;20058;-88
2022/01/17 03:49:37;;;;;;;11.25;2.50;;;4.40;99.90;;;;;;5097339;27;20051;-88
2022/01/17 03:52:04;;;;;;;18.42;2.92;;;4.10;99.90;;;;;;5115155;27;20062;-87
2022/01/17 03:54:31;;;;;;;10.02;1.77;;;4.10;99.90;;;;;;5110363;27;20043;-86
2022/01/17 03:56:57;;;;;;;16.63;2.05;;;4.10;99.90;;;;;;5115285;27;20035;-87
2022/01/17 03:59:23;;;;;;;20.30;2.70;;;4.20;99.90;;;;;;5098613;28;20688;-88
2022/01/17 04:01:49;;;;;;;14.45;1.95;;;4.30;99.90;;;;;;5077139;28;20150;-89
2022/01/17 04:04:15;;;;;;;16.05;2.65;;;4.70;99.90;;;;;;5093619;28;20086;-86
2022/01/17 04:06:40;;;;;;;20.42;2.47;;;4.40;99.90;;;;;;5077382;28;20651;-87
2022/01/17 04:09:06;;;;;;;11.68;1.75;;;4.40;99.90;;;;;;5077254;28;20101;-89
2022/01/17 04:11:32;;;;;;;14.43;1.80;;;4.50;99.90;;;;;;5107153;27;20073;-88
2022/01/17 04:13:58;;;;;;;15.00;2.50;;;5.20;99.90;;;;;;5103649;28;20760;-86
2022/01/17 04:16:23;;;;;;;13.07;2.30;;;4.70;99.90;;;;;;5085437;27;20047;-88
2022/01/17 04:18:49;;;;;;;10.38;1.98;;;4.50;99.90;;;;;;5114772;27;20083;-88
2022/01/17 04:21:15;;;;;;;15.77;1.88;;;4.60;99.90;;;;;;5114687;27;20091;-88
2022/01/17 04:23:40;;;;;;;14.25;2.03;;;4.60;99.90;;;;;;5113376;27;20494;-87
2022/01/17 04:26:06;;;;;;;14.50;2.28;;;4.90;99.90;;;;;;5080855;27;20046;-88
2022/01/17 04:28:32;;;;;;;13.85;2.67;;;5.00;99.90;;;;;;5112980;27;20082;-86
2022/01/17 04:30:59;;;;;;;17.05;1.73;;;4.60;99.90;;;;;;5094282;28;20051;-88
2022/01/17 04:33:25;;;;;;;11.20;2.00;;;4.50;99.90;;;;;;5093691;28;20059;-87
2022/01/17 04:35:50;;;;;;;17.20;2.67;;;4.60;99.90;;;;;;5094238;28;20051;-88
2022/01/17 04:38:18;;;;;;;15.32;2.00;;;4.30;99.90;;;;;;5109513;27;20058;-88
2022/01/17 04:40:49;;;;;;;16.77;2.33;;;4.30;99.90;;;;;;5096702;27;20063;-87
2022/01/17 04:43:32;;;;;;;18.88;2.60;;;4.20;99.90;;;;;;5114316;27;20079;-86
2022/01/17 04:45:58;;;;;;;15.05;2.25;;;4.20;99.90;;;;;;5097300;27;20043;-88
2022/01/17 04:48:25;;;;;;;14.43;2.25;;;4.30;99.90;;;;;;5132241;27;20415;-84
2022/01/17 04:50:52;;;;;;;14.43;2.25;;;4.30;99.90;;;;;;5095834;28;20055;-87
2022/01/17 04:53:20;;;;;;;13.30;1.65;;;4.10;99.90;;;;;;5076809;28;20047;-86
2022/01/17 04:55:46;;;;;;;11.25;2.10;;;4.00;99.90;;;;;;5092855;28;20605;-88
2022/01/17 04:58:12;;;;;;;11.93;2.05;;;4.00;99.90;;;;;;5093570;28;20058;-87
2022/01/17 05:00:45;;;;;;;12.40;1.92;;;4.00;99.90;;;;;;5091506;28;20046;-87
2022/01/17 05:03:12;;;;;;;18.45;2.88;;;4.00;99.90;;;;;;5077777;28;20508;-88
2022/01/17 05:05:37;;;;;;;;;;;4.10;99.90;;;;;;5112013;28;20404;-88
2022/01/17 05:08:03;;;;;;;14.40;3.20;;;4.10;99.90;;;;;;5096439;28;19926;-86
2022/01/17 05:10:29;;;;;;;12.88;2.20;;;4.10;99.90;;;;;;5131191;28;20127;-89
2022/01/17 05:12:55;;;;;;;18.15;2.20;;;4.10;99.90;;;;;;5114031;28;20524;-87
2022/01/17 05:15:47;;;;;;;16.60;2.85;;;4.30;99.90;;;;;;5113429;27;20043;-87
2022/01/17 05:20:36;;;;;;;11.82;2.08;;;4.60;99.90;;;;;;5117621;27;20050;-88
2022/01/17 05:23:01;;;;;;;15.45;2.28;;;4.30;99.90;;;;;;5100728;28;20047;-85
2022/01/17 05:25:27;;;;;;;15.93;2.40;;;4.30;99.90;;;;;;5096794;28;20400;-89
2022/01/17 05:27:53;;;;;;;20.67;2.53;;;4.70;99.90;;;;;;5115551;28;20100;-88
2022/01/17 05:30:21;;;;;;;13.48;2.53;;;4.40;99.90;;;;;;5110440;28;20553;-89
2022/01/17 05:32:49;;;;;;;12.90;2.33;;;4.50;99.90;;;;;;5097045;28;20043;-87
2022/01/17 05:35:15;;;;;;;20.48;3.17;;;4.50;99.90;;;;;;5097221;28;20142;-87
2022/01/17 05:37:41;;;;;;;;;;;4.50;99.90;;;;;;5105643;27;20051;-88
2022/01/17 05:40:09;;;;;;;10.55;2.13;;;4.60;99.90;;;;;;5070716;27;19923;-88
2022/01/17 05:42:35;;;;;;;16.02;2.40;;;4.60;99.90;;;;;;5117359;27;20059;-87
2022/01/17 05:45:02;;;;;;;11.90;2.28;;;4.70;99.90;;;;;;5115859;27;20400;-87
2022/01/17 05:47:28;;;;;;;15.48;2.95;;;4.70;99.90;;;;;;5079964;28;20135;-86
2022/01/17 05:49:53;;;;;;;14.27;2.70;;;4.80;99.90;;;;;;5079821;28;20135;-89
2022/01/17 05:52:19;;;;;;;20.52;2.22;;;4.80;99.90;;;;;;5097321;28;20097;-88
2022/01/17 05:54:45;;;;;;;16.08;2.95;;;4.90;99.90;;;;;;5096039;28;20067;-89
2022/01/17 05:57:11;;;;;;;16.73;2.70;;;4.90;99.90;;;;;;5099682;27;20349;-87
2022/01/17 05:59:37;;;;;;;19.88;3.28;;;4.90;99.90;;;;;;5114122;27;20093;-88
2022/01/17 06:02:03;;;;;;;18.63;2.70;;;5.00;99.90;;;;;;5070662;28;20058;-88
2022/01/17 06:04:29;;;;;;;13.02;2.08;;;5.00;99.90;;;;;;5095934;28;20043;-85
2022/01/17 06:06:54;;;;;;;19.33;3.47;;;5.00;99.90;;;;;;5113555;28;20707;-88
2022/01/17 06:09:20;;;;;;;11.68;2.22;;;5.00;99.90;;;;;;5079564;28;20680;-88
2022/01/17 06:11:46;;;;;;;18.15;3.08;;;5.20;99.90;;;;;;5113160;28;20529;-88
2022/01/17 06:14:16;;;;;;;21.80;3.63;;;5.10;99.90;;;;;;5078565;28;20066;-89
2022/01/17 06:16:44;;;;;;;18.20;3.75;;;5.10;99.90;;;;;;5078888;28;20056;-87
2022/01/17 06:19:10;;;;;;;14.45;2.75;;;5.50;99.90;;;;;;5117042;27;20040;-87
2022/01/17 06:21:36;;;;;;;16.42;3.17;;;5.20;99.90;;;;;;5099090;27;20051;-86
2022/01/17 06:24:02;;;;;;;25.35;3.78;;;5.30;99.90;;;;;;5101718;28;20104;-87
2022/01/17 06:26:28;;;;;;;20.77;3.38;;;5.30;99.90;;;;;;5095697;28;20500;-89
2022/01/17 06:28:54;;;;;;;18.95;3.80;;;5.30;99.90;;;;;;5093898;28;20151;-88
2022/01/17 06:31:20;;;;;;;12.23;2.20;;;5.80;99.90;;;;;;5096141;28;20044;-87
2022/01/17 06:33:45;;;;;;;20.10;3.13;;;5.40;99.90;;;;;;5095589;28;20043;-87
2022/01/17 06:36:11;;;;;;;15.25;3.22;;;5.70;99.90;;;;;;5097095;28;20051;-87
2022/01/17 06:38:37;;;;;;;19.60;3.53;;;5.40;99.90;;;;;;5114272;28;20050;-88
2022/01/17 06:41:02;;;;;;;17.05;4.00;;;5.40;99.90;;;;;;5104075;28;20647;-88
2022/01/17 06:43:28;;;;;;;17.88;3.83;;;5.40;99.90;;;;;;5079747;28;20399;-87
2022/01/17 06:45:54;;;;;;;23.52;3.80;;;5.40;99.90;;;;;;5095104;28;20035;-87
2022/01/17 06:48:20;;;;;;;20.52;4.20;;;5.40;99.90;;;;;;5096618;28;20043;-88
2022/01/17 06:50:46;;;;;;;18.08;3.95;;;5.40;99.90;;;;;;5095979;28;20398;-88
2022/01/17 06:53:11;;;;;;;24.80;4.70;;;5.50;99.90;;;;;;5082272;28;20051;-88
2022/01/17 06:55:37;;;;;;;22.95;5.07;;;5.50;99.90;;;;;;5095544;28;20040;-85
2022/01/17 06:58:03;;;;;;;15.32;4.38;;;5.50;99.90;;;;;;5102395;27;20055;-89
2022/01/17 07:00:29;;;;;;;21.67;5.25;;;5.50;99.90;;;;;;5097742;27;20074;-88
2022/01/17 07:02:54;;;;;;;23.80;5.60;;;5.90;99.90;;;;;;5098898;27;20464;-88
2022/01/17 07:05:20;;;;;;;16.38;4.50;;;5.50;99.90;;;;;;5111176;28;20055;-88
2022/01/17 07:07:46;;;;;;;18.50;5.15;;;5.60;99.90;;;;;;5095448;28;20043;-89
2022/01/17 07:10:11;;;;;;;21.27;5.53;;;5.90;99.90;;;;;;5095522;28;20048;-87
2022/01/17 07:12:37;;;;;;;25.58;5.53;;;5.60;99.90;;;;;;5095515;28;20369;-86
2022/01/17 07:15:07;;;;;;;16.08;4.90;;;5.60;99.90;;;;;;5093653;28;20073;-89
2022/01/17 07:17:34;;;;;;;17.35;5.57;;;5.60;99.90;;;;;;5095956;28;20123;-87
2022/01/17 07:20:00;;;;;;;21.20;6.25;;;5.60;99.90;;;;;;5094952;28;20056;-87
2022/01/17 07:22:27;;;;;;;;;;;5.60;99.90;;;;;;5109095;27;20472;-89
2022/01/17 07:24:54;;;;;;;31.08;6.82;;;6.10;99.90;;;;;;5104859;28;19983;-88
2022/01/17 07:27:21;;;;;;;21.65;5.88;;;6.00;99.90;;;;;;5078289;28;20495;-87
2022/01/17 07:29:46;;;;;;;24.58;6.75;;;5.60;99.90;;;;;;5095724;28;20459;-87
2022/01/17 07:32:12;;;;;;;29.48;6.88;;;5.50;99.90;;;;;;5069645;28;20131;-88
2022/01/17 07:34:38;;;;;;;23.30;7.10;;;5.60;99.90;;;;;;5104976;27;20142;-86
2022/01/17 07:37:04;;;;;;;23.00;6.40;;;5.60;99.90;;;;;;5105740;28;20423;-87
2022/01/17 07:39:30;;;;;;;24.33;5.43;;;5.60;99.90;;;;;;5129821;27;20039;-86
2022/01/17 07:41:56;;;;;;;22.17;6.20;;;5.70;99.90;;;;;;5107626;28;20477;-87
2022/01/17 07:44:24;;;;;;;23.27;6.25;;;5.60;99.90;;;;;;5092776;27;20100;-87
2022/01/17 07:46:55;;;;;;;25.83;6.80;;;5.60;99.90;;;;;;5104134;28;20481;-86
2022/01/17 07:49:22;;;;;;;23.90;5.45;;;6.40;99.90;;;;;;5094692;28;20047;-88
2022/01/17 07:52:03;;;;;;;19.83;6.15;;;5.60;99.90;;;;;;5093527;28;20423;-88
2022/01/17 07:54:37;;;;;;;25.38;6.80;;;5.70;99.90;;;;;;5094170;28;20047;-87
2022/01/17 07:57:04;;;;;;;27.95;6.53;;;5.70;99.90;;;;;;5094290;28;20139;-87
2022/01/17 07:59:30;;;;;;;31.02;6.18;;;5.70;99.90;;;;;;5093204;28;20555;-87
2022/01/17 08:01:56;;;;;;;23.83;6.10;;;5.70;99.90;;;;;;5076500;28;20501;-88
2022/01/17 08:04:22;;;;;;;24.88;6.10;;;5.80;99.90;;;;;;5095015;28;20101;-88
2022/01/17 08:06:49;;;;;;;26.40;6.05;;;6.00;99.90;;;;;;5114743;27;20099;-88
2022/01/17 08:09:21;;;;;;;27.55;5.68;;;5.80;99.90;;;;;;5103122;28;20079;-87
2022/01/17 08:11:49;;;;;;;21.63;5.60;;;5.80;99.90;;;;;;5076903;28;20048;-85
2022/01/17 08:14:15;;;;;;;26.60;6.18;;;5.70;99.90;;;;;;5093575;28;20063;-88
2022/01/17 08:16:41;;;;;;;21.83;5.68;;;5.80;99.90;;;;;;5094115;28;20173;-88
2022/01/17 08:19:06;;;;;;;34.00;5.95;;;5.80;99.90;;;;;;5094076;28;20047;-82
2022/01/17 08:21:32;;;;;;;28.20;5.38;;;5.80;99.90;;;;;;5094843;28;20147;-86
2022/01/17 08:24:00;;;;;;;17.70;5.18;;;6.00;99.90;;;;;;5095965;28;20075;-91
2022/01/17 08:26:26;;;;;;;25.13;5.10;;;5.90;99.90;;;;;;5081127;28;20499;-93
2022/01/17 08:28:52;;;;;;;30.15;6.22;;;5.90;99.90;;;;;;5098756;28;20111;-85
2022/01/17 08:31:18;;;;;;;34.65;6.30;;;5.90;99.90;;;;;;5093269;28;20047;-87
2022/01/17 08:33:45;;;;;;;27.08;5.38;;;6.10;99.90;;;;;;5093253;28;20039;-86
2022/01/17 08:36:11;;;;;;;26.73;5.40;;;6.00;99.90;;;;;;5094637;28;20043;-89
2022/01/17 08:38:38;;;;;;;35.63;6.82;;;6.00;99.90;;;;;;5077616;28;20392;-87
2022/01/17 08:41:04;;;;;;;25.35;4.85;;;6.00;99.90;;;;;;5093172;28;20047;-88
2022/01/17 08:43:30;;;;;;;22.83;4.60;;;6.00;99.90;;;;;;5093180;28;20040;-86
2022/01/17 08:45:56;;;;;;;20.98;5.18;;;6.00;99.90;;;;;;5092085;28;20054;-87
2022/01/17 08:48:22;;;;;;;32.83;5.32;;;6.30;99.90;;;;;;5093470;27;20484;-87
2022/01/17 08:50:50;;;;;;;29.27;5.03;;;6.00;99.90;;;;;;5094952;28;20052;-86
2022/01/17 08:53:16;;;;;;;29.13;5.65;;;6.40;99.90;;;;;;5099621;28;20043;-88
2022/01/17 08:55:44;;;;;;;23.17;4.68;;;6.00;99.90;;;;;;5103578;27;20102;-88
2022/01/17 08:58:11;;;;;;;31.00;5.18;;;6.00;99.90;;;;;;5089004;27;20043;-87
2022/01/17 09:00:38;;;;;;;32.85;5.35;;;6.20;99.90;;;;;;5082680;27;20062;-87
2022/01/17 09:03:03;;;;;;;;;;;6.10;99.90;;;;;;5097023;28;20062;-88
2022/01/17 09:05:30;;;;;;;34.13;4.57;;;6.10;99.90;;;;;;5100660;28;19923;-87
2022/01/17 09:07:57;;;;;;;21.92;4.40;;;6.10;99.90;;;;;;5101006;28;20043;-88
2022/01/17 09:10:23;;;;;;;27.92;4.28;;;6.10;99.90;;;;;;5093249;28;20476;-90
2022/01/17 09:12:51;;;;;;;;;;;6.20;99.90;;;;;;5104496;28;20044;-88
2022/01/17 09:15:17;;;;;;;26.17;4.05;;;6.30;99.90;;;;;;5099973;28;19923;-91
2022/01/17 09:17:43;;;;;;;22.58;4.03;;;6.20;99.90;;;;;;5095502;28;20043;-94
2022/01/17 09:20:09;;;;;;;30.52;4.40;;;6.30;99.90;;;;;;5097078;28;20062;-86
2022/01/17 09:22:35;;;;;;;28.67;4.22;;;6.30;99.90;;;;;;5092443;28;20047;-83
2022/01/17 09:25:02;;;;;;;21.17;4.43;;;6.50;99.90;;;;;;5089332;28;20052;-86
2022/01/17 09:27:27;;;;;;;;;;;6.20;99.90;;;;;;5100645;28;20039;-88
2022/01/17 09:29:53;;;;;;;32.72;5.10;;;6.30;99.90;;;;;;5092196;28;20288;-88
2022/01/17 09:32:19;;;;;;;32.05;3.97;;;6.40;99.90;;;;;;5042978;28;20048;-89
2022/01/17 09:34:46;;;;;;;25.83;4.13;;;6.40;99.90;;;;;;5094069;28;20426;-87
2022/01/17 09:37:13;;;;;;;27.92;3.97;;;6.40;99.90;;;;;;5106478;28;20043;-88
2022/01/17 09:39:39;;;;;;;25.42;4.18;;;6.50;99.90;;;;;;5090894;27;20036;-89
2022/01/17 09:42:08;;;;;;;29.10;4.22;;;6.50;99.90;;;;;;5086259;28;20555;-88
2022/01/17 09:44:36;;;;;;;29.08;4.32;;;6.50;99.90;;;;;;5105407;28;20048;-89
2022/01/17 09:47:11;;;;;;;43.70;4.45;;;6.60;99.90;;;;;;5081326;28;20050;-88
2022/01/17 09:49:43;;;;;;;36.90;4.38;;;6.60;99.90;;;;;;5085963;28;20064;-88
2022/01/17 09:54:53;;;;;;;36.13;4.80;;;6.70;99.90;;;;;;5112976;28;20055;-89
2022/01/17 09:57:20;;;;;;;26.65;4.05;;;6.80;99.90;;;;;;5108011;28;20039;-88
2022/01/17 09:59:46;;;;;;;26.50;4.15;;;6.80;99.90;;;;;;5090322;28;20055;-89
2022/01/17 10:02:13;;;;;;;30.10;4.40;;;7.20;99.90;;;;;;5083527;28;20036;-89
2022/01/17 10:04:40;;;;;;;32.65;4.50;;;6.90;99.90;;;;;;5084968;27;20043;-87
2022/01/17 10:07:06;;;;;;;;;;;7.20;99.90;;;;;;5096529;28;20047;-89
2022/01/17 10:09:33;;;;;;;33.60;3.60;;;7.10;99.90;;;;;;5095975;27;19924;-89
2022/01/17 10:12:14;;;;;;;26.98;4.22;;;7.20;99.90;;;;;;5099316;28;20126;-87
2022/01/17 10:14:43;;;;;;;31.27;4.35;;;7.20;99.90;;;;;;5095341;28;20097;-89
2022/01/17 10:17:15;;;;;;;29.88;4.80;;;7.30;99.90;;;;;;5100457;27;20051;-88
2022/01/17 10:19:57;;;;;;;39.60;4.88;;;7.50;99.90;;;;;;5100966;27;20055;-88
2022/01/17 10:22:28;;;;;;;26.10;4.78;;;7.40;99.90;;;;;;5097123;27;20439;-89
2022/01/17 10:25:18;;;;;;;26.98;4.03;;;7.40;99.90;;;;;;5082659;27;20039;-88
2022/01/17 10:30:45;;;;;;;25.77;4.03;;;7.40;99.90;;;;;;5101212;28;20058;-90
2022/01/17 10:35:57;;;;;;;28.25;4.35;;;7.50;99.90;;;;;;5098797;27;20055;-88
2022/01/17 10:38:25;;;;;;;28.38;3.80;;;7.60;99.90;;;;;;5092555;27;20050;-89
2022/01/17 10:41:02;;;;;;;30.35;5.70;;;7.70;99.90;;;;;;5102375;27;20054;-88
2022/01/17 10:43:34;;;;;;;31.58;4.28;;;7.70;99.90;;;;;;5105361;27;20469;-91
2022/01/17 10:46:06;;;;;;;33.28;4.43;;;7.80;99.90;;;;;;5110851;27;20133;-91
2022/01/17 10:48:37;;;;;;;38.58;4.65;;;7.80;99.90;;;;;;5133875;27;20043;-89
2022/01/17 10:51:04;;;;;;;37.20;4.38;;;8.00;99.90;;;;;;5114096;27;20051;-86
2022/01/17 10:53:31;;;;;;;29.20;4.47;;;8.00;99.90;;;;;;5115267;27;20122;-88
2022/01/17 10:55:57;;;;;;;;;;;8.00;99.90;;;;;;5130348;27;20146;-90
2022/01/17 10:58:29;;;;;;;28.52;3.50;;;8.10;99.90;;;;;;5096908;27;20000;-88
2022/01/17 11:01:01;;;;;;;29.92;5.00;;;8.20;99.90;;;;;;5101644;27;20151;-85
2022/01/17 11:03:29;;;;;;;31.23;4.55;;;8.30;99.90;;;;;;5121810;27;20054;-88
2022/01/17 11:05:57;;;;;;;28.35;3.70;;;8.40;99.90;;;;;;5097280;27;20110;-88
2022/01/17 11:08:27;;;;;;;43.47;5.30;;;8.60;99.90;;;;;;5096285;28;20040;-88
2022/01/17 11:10:56;;;;;;;31.77;4.13;;;8.70;99.90;;;;;;5110525;27;20103;-87
2022/01/17 11:13:24;;;;;;;32.80;5.10;;;8.80;99.90;;;;;;5114146;27;20758;-86
2022/01/17 11:16:13;;;;;;;30.42;4.70;;;8.80;99.90;;;;;;5114017;27;20043;-86
2022/01/17 11:18:43;;;;;;;28.13;4.43;;;8.90;99.90;;;;;;5097914;27;20127;-87
2022/01/17 11:21:13;;;;;;;35.47;4.72;;;8.90;99.90;;;;;;5083717;28;20052;-87
2022/01/17 11:23:43;;;;;;;28.80;4.68;;;8.90;99.90;;;;;;5096118;27;20404;-86
2022/01/17 11:26:09;;;;;;;32.05;5.32;;;8.80;99.90;;;;;;5106584;28;20058;-86
2022/01/17 11:28:36;;;;;;;33.45;5.47;;;8.80;99.90;;;;;;5088435;28;20051;-87
2022/01/17 11:31:06;;;;;;;29.05;4.32;;;8.60;99.90;;;;;;5097346;28;20054;-87
2022/01/17 11:33:32;;;;;;;41.67;6.28;;;8.60;99.90;;;;;;5093604;28;20125;-88
2022/01/17 11:35:58;;;;;;;35.83;4.80;;;8.60;99.90;;;;;;5094370;28;20043;-88
2022/01/17 11:38:27;;;;;;;32.58;5.05;;;8.60;99.90;;;;;;5093443;28;20048;-88
2022/01/17 11:40:54;;;;;;;37.33;5.57;;;8.70;99.90;;;;;;5093452;28;20526;-89
2022/01/17 11:43:33;;;;;;;35.60;5.20;;;8.80;99.90;;;;;;5113394;27;20086;-86
2022/01/17 11:46:20;;;;;;;41.75;6.03;;;8.80;99.90;;;;;;5091962;27;20114;-87
2022/01/17 11:48:58;;;;;;;31.95;5.20;;;8.90;99.90;;;;;;5103921;27;20519;-88
2022/01/17 11:51:51;;;;;;;38.95;5.20;;;9.00;99.90;;;;;;5115691;27;20112;-88
2022/01/17 11:54:27;;;;;;;34.25;5.30;;;9.20;99.90;;;;;;5108371;27;20056;-88
2022/01/17 11:57:04;;;;;;;25.48;4.70;;;9.30;99.90;;;;;;5112365;27;20488;-87
2022/01/17 11:59:46;;;;;;;34.38;5.22;;;9.40;99.90;;;;;;5107422;27;20039;-87
2022/01/17 12:02:18;;;;;;;37.72;6.50;;;9.40;99.90;;;;;;5107778;27;20122;-86
2022/01/17 12:05:03;;;;;;;28.35;4.82;;;9.50;99.90;;;;;;5095510;28;20043;-87
2022/01/17 12:07:49;;;;;;;33.85;5.53;;;9.50;99.90;;;;;;5076475;28;20369;-88
2022/01/17 12:10:17;;;;;;;37.85;5.63;;;9.50;99.90;;;;;;5102211;27;20116;-87
2022/01/17 12:13:06;;;;;;;32.78;5.03;;;9.50;99.90;;;;;;5104295;28;20056;-87
2022/01/17 12:16:22;;;;;;;36.65;5.38;;;9.50;99.90;;;;;;5091561;28;20611;-87
2022/01/17 12:18:49;;;;;;;29.02;4.53;;;9.50;99.90;;;;;;5093620;28;20055;-89
2022/01/17 12:21:17;;;;;;;40.47;5.40;;;9.50;99.90;;;;;;5093027;28;20181;-87
2022/01/17 12:23:43;;;;;;;34.13;5.63;;;9.50;99.90;;;;;;5094276;27;20058;-87
2022/01/17 12:26:29;;;;;;;32.10;5.72;;;9.50;99.90;;;;;;5095226;27;20146;-86
2022/01/17 12:28:57;;;;;;;31.35;5.15;;;9.40;99.90;;;;;;5090455;28;20063;-87
2022/01/17 12:31:44;;;;;;;36.22;6.03;;;9.40;99.90;;;;;;5092415;28;20048;-87
2022/01/17 12:34:16;;;;;;;25.48;4.10;;;9.40;99.90;;;;;;5094022;28;20055;-89
2022/01/17 12:36:42;;;;;;;26.08;4.43;;;9.30;99.90;;;;;;5100240;28;20135;-88
2022/01/17 12:39:11;;;;;;;28.80;3.92;;;9.30;99.90;;;;;;5111689;27;20546;-85
2022/01/17 12:41:39;;;;;;;25.98;4.20;;;9.20;99.90;;;;;;5092239;28;20094;-87
2022/01/17 12:44:22;;;;;;;28.50;4.07;;;9.20;99.90;;;;;;5091838;28;20074;-87
2022/01/17 12:46:52;;;;;;;28.80;4.35;;;9.30;99.90;;;;;;5110615;28;20118;-87
2022/01/17 12:49:19;;;;;;;29.98;5.22;;;9.20;99.90;;;;;;5095660;27;20472;-83
2022/01/17 12:51:48;;;;;;;26.17;4.20;;;9.20;99.90;;;;;;5131940;27;20654;-87
2022/01/17 12:54:16;;;;;;;26.88;4.57;;;9.20;99.90;;;;;;5131475;27;20526;-87
2022/01/17 12:56:43;;;;;;;27.48;4.57;;;9.20;99.90;;;;;;5131001;27;20043;-88
2022/01/17 12:59:09;;;;;;;30.98;4.47;;;9.20;99.90;;;;;;5111443;28;20050;-88
2022/01/17 13:01:35;;;;;;;25.33;4.70;;;9.20;99.90;;;;;;5094477;28;20073;-86
2022/01/17 13:04:04;;;;;;;30.92;4.65;;;9.20;99.90;;;;;;5121505;27;20047;-86
2022/01/17 13:06:30;;;;;;;30.08;4.15;;;9.10;99.90;;;;;;5096740;28;20055;-78
2022/01/17 13:08:59;;;;;;;31.65;3.90;;;9.20;99.90;;;;;;5111800;28;20130;-77
2022/01/17 13:11:26;;;;;;;28.92;4.20;;;9.20;99.90;;;;;;5112014;28;20074;-77
2022/01/17 13:13:58;;;;;;;29.35;3.95;;;9.20;99.90;;;;;;5130193;28;20058;-77
2022/01/17 13:16:25;;;;;;;27.23;4.30;;;9.20;99.90;;;;;;5112027;28;20507;-79
2022/01/17 13:18:53;;;;;;;30.05;4.65;;;9.20;99.90;;;;;;5100451;28;20050;-77
2022/01/17 13:21:20;;;;;;;23.10;4.00;;;9.10;99.90;;;;;;5094701;28;20052;-77
2022/01/17 13:24:01;;;;;;;29.75;4.47;;;9.10;99.90;;;;;;5110230;28;20201;-78